aviador You're here:

LFBD Decoded Metar

BORDEAUX in FRANCE
Report Time2017-09-24 12:00:00
UTC Time2017-09-24 12:18:13
Flight Rules vfr VFR
Wind180° at 04 kt
W.Decomp.*RWY 23: 2.6 kt HW 3 kt LCW
RWY 11: 1.3 kt HW 3.8 kt RCW
W.Rank180° ranks 27
Current wind is below 180° avg. (5.4)
Visibility9999 m
Phenomena:N/A
Clouds:N/A
Expected CloudBase > 4,400 ft AGL from Temp-Dew spread
CeilingNone
Temp26°C (ISA +11)
Dew Point15°C (51% RH)
QNH1019 hPa
Density Alt1,545 ft
Elevation200 ft
Report Wrong Elevation
Raw Report
LFBD 241200Z AUTO 18004KT 120V260 CAVOK 26/15 Q1019 NOSIG=

Extra information for LFBD:More info

Metar Taf Metar & Taf Last 4 Metars F.Rules Stats Wind Profile Meteogram Temp Stats Airport Information Weather charts Add Link Nearby VenuesMetar ALERT Operation Metar Decoded Social comments